This is the latest recevied weather packets stored in our database for station/object WB4MOZ-3. If no packets are shown the sender has not sent any weather packets the latest 10 day(s).
| Time | Temp. | Humidity | Pressure | Rain* | Wind** | Luminosity | Snow |
|---|---|---|---|---|---|---|---|
| 1777496262 | 30° C | 60% | 1011.1 hPa | 0 mm | - | - | - |
| 1777495961 | 30.56° C | 59% | 1011.1 hPa | 0 mm | - | - | - |
| 1777495661 | 30.56° C | 58% | 1011.2 hPa | 0 mm | - | - | - |
| 1777495361 | 30.56° C | 58% | 1011.1 hPa | 0 mm | - | - | - |
| 1777495061 | 31.11° C | 58% | 1011.3 hPa | 0 mm | - | - | - |
| 1777493861 | 31.67° C | 55% | 1011.2 hPa | 0 mm | - | - | - |
| 1777493561 | 31.67° C | 56% | 1011.1 hPa | 0 mm | - | - | - |
| 1777493262 | 31.11° C | 57% | 1011.1 hPa | 0 mm | - | - | - |
| 1777492961 | 31.67° C | 55% | 1011.1 hPa | 0 mm | - | - | - |
| 1777492661 | 31.67° C | 53% | 1011.2 hPa | 0 mm | - | - | - |
| 1777492361 | 32.22° C | 53% | 1011.4 hPa | 0 mm | - | - | - |
| 1777492061 | 32.22° C | 51% | 1011.5 hPa | 0 mm | - | - | - |
| 1777491761 | 32.78° C | 50% | 1011.6 hPa | 0 mm | - | - | - |
| 1777491461 | 32.78° C | 49% | 1011.7 hPa | 0 mm | - | - | - |
| 1777491162 | 32.78° C | 50% | 1011.8 hPa | 0 mm | - | - | - |
| 1777490861 | 32.22° C | 52% | 1011.8 hPa | 0 mm | - | - | - |
| 1777490561 | 32.22° C | 52% | 1012 hPa | 0 mm | - | - | - |
| 1777490261 | 32.22° C | 54% | 1012.2 hPa | 0 mm | - | - | - |
| 1777489961 | 31.67° C | 53% | 1012.3 hPa | 0 mm | - | - | - |
| 1777489361 | 31.11° C | 57% | 1012.5 hPa | 0 mm | - | - | - |
| 1777489061 | 30.56° C | 57% | 1012.6 hPa | 0 mm | - | - | - |
| 1777488761 | 30.56° C | 57% | 1012.8 hPa | 0 mm | - | - | - |
| 1777488161 | 31.11° C | 54% | 1013 hPa | 0 mm | - | - | - |
| 1777487861 | 31.67° C | 55% | 1013.1 hPa | 0 mm | - | - | - |
| 1777487561 | 31.67° C | 54% | 1013.1 hPa | 0 mm | - | - | - |
* Rain latest hour (hover to see other rain measurements)
** Current wind speed in m/s (hover to see current wind gust speed)